This is the latest recevied weather packets stored in our database for station/object LKCS. If no packets are shown the sender has not sent any weather packets the latest 10 day(s).
| Time | Temp. | Humidity | Pressure | Rain* | Wind** | Luminosity | Snow |
|---|---|---|---|---|---|---|---|
| 1787596385 | 18.89° C | 45% | 1018 hPa | - | - | - | - |
| 1787594560 | 20° C | 42% | 1018 hPa | - | - | - | - |
| 1787592757 | 21.11° C | 37% | 1018 hPa | - | - | - | - |
| 1787590986 | 21.11° C | 37% | 1018 hPa | - | - | - | - |
| 1787589185 | 22.22° C | 33% | 1019 hPa | - | - | - | - |
| 1787587385 | 22.22° C | 35% | 1019 hPa | - | - | - | - |
| 1787585584 | 22.78° C | 31% | 1020 hPa | - | - | - | - |
| 1787583785 | 22.78° C | 31% | 1020 hPa | - | - | - | - |
| 1787581984 | 22.78° C | 33% | 1020 hPa | - | - | - | - |
| 1787580195 | 22.78° C | 33% | 1020 hPa | - | - | - | - |
| 1787578358 | 22.78° C | 27% | 1020 hPa | - | - | - | - |
| 1787576562 | 22.78° C | 31% | 1021 hPa | - | - | - | - |
| 1787574758 | 22.22° C | 35% | 1021 hPa | - | - | - | - |
| 1787572993 | 22.22° C | 37% | 1021 hPa | - | - | - | - |
| 1787571158 | 21.11° C | 43% | 1021 hPa | - | - | - | - |
| 1787569366 | 20° C | 45% | 1022 hPa | - | - | - | - |
| 1787567558 | 20° C | 45% | 1022 hPa | - | - | - | - |
| 1787565796 | 18.89° C | 52% | 1022 hPa | - | - | - | - |
| 1787563957 | 18.89° C | 52% | 1022 hPa | - | - | - | - |
| 1787562194 | 17.22° C | 59% | 1023 hPa | - | - | - | - |
| 1787560389 | 16.11° C | 59% | 1023 hPa | - | - | - | - |
| 1787558593 | 16.11° C | 63% | 1023 hPa | - | - | - | - |
| 1787556784 | 15° C | 72% | 1023 hPa | - | - | - | - |
| 1787554994 | 12.78° C | 82% | 1023 hPa | - | - | - | - |
| 1787553186 | 12.22° C | 81% | 1023 hPa | - | - | - | - |
* Rain since midnight (hover to see other rain measurements)
** Current wind speed in m/s (hover to see current wind gust speed)